createdAt,value
2019-01-21T00:01:50.256Z,-2.7
2019-01-21T00:18:21.411Z,-2.7
2019-01-21T00:34:52.564Z,-3.0
2019-01-21T00:51:23.570Z,-3.0
2019-01-21T01:07:54.587Z,-3.4
2019-01-21T01:24:25.410Z,-3.4
2019-01-21T01:40:56.239Z,-3.4
2019-01-21T01:57:27.091Z,-3.4
2019-01-21T02:13:57.917Z,-3.7
2019-01-21T02:30:28.635Z,-3.7
2019-01-21T02:46:59.328Z,-3.7
2019-01-21T03:03:30.003Z,-3.7
2019-01-21T03:20:00.680Z,-3.7
2019-01-21T03:36:31.313Z,-3.7
2019-01-21T03:53:01.987Z,-3.7
2019-01-21T04:09:32.537Z,-4.0
2019-01-21T04:26:03.113Z,-4.0
2019-01-21T04:42:33.501Z,-4.3
2019-01-21T04:59:03.908Z,-4.6
2019-01-21T05:15:34.165Z,-4.6
2019-01-21T05:32:04.501Z,-4.6
2019-01-21T05:48:34.757Z,-4.6
2019-01-21T06:05:04.963Z,-5.0
2019-01-21T06:21:35.033Z,-5.0
2019-01-21T06:38:05.266Z,-4.6
2019-01-21T06:54:35.514Z,-5.0
2019-01-21T07:11:05.612Z,-5.0
2019-01-21T07:27:35.715Z,-5.3
2019-01-21T07:44:05.747Z,-5.0
2019-01-21T08:00:36.145Z,-5.0
2019-01-21T08:17:06.353Z,-4.6
2019-01-21T08:33:36.716Z,-4.6
2019-01-21T08:50:07.833Z,-4.6
2019-01-21T09:06:37.597Z,-4.0
2019-01-21T09:23:08.292Z,-3.4
2019-01-21T09:39:39.226Z,-3.4
2019-01-21T09:47:54.656Z,-2.7
2019-01-21T10:01:08.092Z,-2.1
2019-01-21T10:17:39.931Z,-1.8
2019-01-21T10:30:53.648Z,-1.1
2019-01-21T10:47:26.232Z,-0.8
2019-01-21T11:03:58.701Z,-0.5
2019-01-21T11:20:31.459Z,-0.2
2019-01-21T11:37:04.224Z,0.2
2019-01-21T11:53:38.797Z,0.5
2019-01-21T12:10:10.611Z,0.8
2019-01-21T12:26:43.905Z,1.1
2019-01-21T12:43:17.205Z,0.8
2019-01-21T12:59:50.597Z,1.1
2019-01-21T13:16:24.062Z,1.1
2019-01-21T13:32:57.695Z,1.4
2019-01-21T13:49:31.382Z,1.4
2019-01-21T14:06:05.170Z,1.4
2019-01-21T14:22:38.783Z,1.4
2019-01-21T14:39:12.641Z,1.4
2019-01-21T14:55:46.394Z,1.4
2019-01-21T15:12:19.989Z,1.1
2019-01-21T15:28:53.502Z,0.8
2019-01-21T15:45:27.030Z,0.8
2019-01-21T16:02:00.293Z,0.5
2019-01-21T16:18:33.424Z,0.2
2019-01-21T16:35:06.515Z,0.2
2019-01-21T16:51:39.469Z,-0.2
2019-01-21T17:08:12.524Z,-0.2
2019-01-21T17:24:45.547Z,-0.2
2019-01-21T17:41:18.396Z,-0.2
2019-01-21T17:57:51.320Z,-0.5
2019-01-21T18:14:24.060Z,-0.5
2019-01-21T18:30:56.816Z,-0.5
2019-01-21T18:47:29.333Z,-0.8
2019-01-21T19:04:01.654Z,-0.8
2019-01-21T19:20:33.425Z,-0.8
2019-01-21T19:37:05.440Z,-1.1
2019-01-21T19:53:37.389Z,-1.1
2019-01-21T20:10:09.407Z,-1.1
2019-01-21T20:43:13.089Z,-1.4
2019-01-21T20:59:44.819Z,-0.8
2019-01-21T21:16:17.089Z,-1.1
2019-01-21T21:32:48.944Z,-1.1
2019-01-21T21:49:21.391Z,-0.8
2019-01-21T22:05:53.418Z,-0.8
2019-01-21T22:22:25.451Z,-1.1
2019-01-21T22:38:57.583Z,-1.1
2019-01-21T22:55:29.451Z,-1.1
2019-01-21T23:12:01.482Z,-1.1
2019-01-21T23:28:33.537Z,-1.1
2019-01-21T23:45:05.590Z,-1.1
